createdAt,value
2023-05-14T00:00:40.608Z,11.76
2023-05-14T00:03:07.237Z,11.75
2023-05-14T00:05:33.771Z,11.80
2023-05-14T00:08:00.411Z,11.84
2023-05-14T00:10:27.535Z,11.84
2023-05-14T00:12:54.160Z,11.83
2023-05-14T00:15:20.569Z,11.81
2023-05-14T00:17:47.185Z,11.75
2023-05-14T00:20:13.892Z,11.66
2023-05-14T00:22:40.520Z,11.74
2023-05-14T00:25:08.014Z,11.67
2023-05-14T00:27:35.517Z,11.69
2023-05-14T00:30:02.669Z,11.64
2023-05-14T00:32:29.185Z,11.62
2023-05-14T00:34:55.887Z,11.59
2023-05-14T00:37:22.390Z,11.59
2023-05-14T00:39:49.000Z,11.55
2023-05-14T00:42:15.720Z,11.55
2023-05-14T00:44:42.318Z,11.57
2023-05-14T00:47:08.912Z,11.54
2023-05-14T00:49:35.853Z,11.50
2023-05-14T00:52:02.448Z,11.58
2023-05-14T00:54:29.578Z,11.59
2023-05-14T00:56:56.283Z,11.63
2023-05-14T00:59:22.856Z,11.61
2023-05-14T01:01:49.529Z,11.62
2023-05-14T01:04:16.220Z,11.60
2023-05-14T01:07:17.466Z,11.63
2023-05-14T01:09:59.606Z,11.62
2023-05-14T01:13:22.894Z,11.65
2023-05-14T01:15:49.548Z,11.67
2023-05-14T01:18:19.182Z,11.66
2023-05-14T01:20:46.297Z,11.63
2023-05-14T01:23:32.720Z,11.62
2023-05-14T01:26:20.988Z,11.57
2023-05-14T01:29:22.034Z,11.50
2023-05-14T01:32:10.494Z,11.51
2023-05-14T01:35:00.216Z,11.49
2023-05-14T01:37:48.815Z,11.44
2023-05-14T01:40:15.729Z,11.36
2023-05-14T01:42:43.915Z,11.23
2023-05-14T01:45:10.712Z,11.13
2023-05-14T01:47:37.193Z,11.17
2023-05-14T01:50:03.832Z,11.05
2023-05-14T01:52:30.558Z,11.04
2023-05-14T01:54:58.498Z,11.01
2023-05-14T01:57:25.150Z,10.93
2023-05-14T01:59:51.581Z,10.92
2023-05-14T02:02:18.285Z,10.89
2023-05-14T02:04:44.875Z,10.83
2023-05-14T02:07:11.360Z,10.84
2023-05-14T02:09:38.026Z,10.77
2023-05-14T02:12:06.472Z,10.78
2023-05-14T02:14:33.008Z,10.81
2023-05-14T02:16:59.582Z,10.79
2023-05-14T02:19:26.251Z,10.88
2023-05-14T02:21:52.819Z,10.91
2023-05-14T02:24:19.313Z,10.95
2023-05-14T02:26:46.182Z,10.87
2023-05-14T02:29:12.948Z,10.70
2023-05-14T02:31:39.552Z,10.70
2023-05-14T02:34:06.703Z,10.63
2023-05-14T02:36:33.650Z,10.67
2023-05-14T02:39:04.565Z,10.69
2023-05-14T02:41:31.232Z,10.65
2023-05-14T02:43:57.697Z,10.70
2023-05-14T02:46:24.714Z,10.78
2023-05-14T02:48:51.466Z,10.65
2023-05-14T02:51:20.875Z,10.61
2023-05-14T02:53:47.585Z,10.51
2023-05-14T02:56:14.073Z,10.56
2023-05-14T02:58:41.073Z,10.58
2023-05-14T03:01:07.980Z,10.62
2023-05-14T03:03:35.720Z,10.54
2023-05-14T03:06:02.655Z,10.40
2023-05-14T03:08:29.136Z,10.44
2023-05-14T03:10:55.852Z,10.42
2023-05-14T03:13:22.421Z,10.46
2023-05-14T03:15:48.964Z,10.42
2023-05-14T03:18:15.593Z,10.42
2023-05-14T03:20:42.291Z,10.34
2023-05-14T03:23:08.815Z,10.29
2023-05-14T03:25:35.514Z,10.32
2023-05-14T03:28:03.470Z,10.42
2023-05-14T03:30:30.649Z,10.36
2023-05-14T03:32:57.546Z,10.33
2023-05-14T03:35:24.219Z,10.32
2023-05-14T03:37:52.936Z,10.37
2023-05-14T03:40:19.724Z,10.31
2023-05-14T03:42:46.160Z,10.34
2023-05-14T03:45:14.322Z,10.25
2023-05-14T03:47:41.688Z,10.18
2023-05-14T03:50:08.862Z,10.14
2023-05-14T03:52:35.606Z,9.98
2023-05-14T03:55:02.986Z,9.85
2023-05-14T03:57:29.604Z,9.92
2023-05-14T03:59:56.255Z,9.90
2023-05-14T04:02:23.029Z,9.94
2023-05-14T04:04:49.717Z,9.93
2023-05-14T04:07:19.197Z,9.93
2023-05-14T04:09:46.674Z,9.87
2023-05-14T04:12:13.555Z,9.79
2023-05-14T04:14:40.338Z,9.79
2023-05-14T04:17:07.652Z,9.76
2023-05-14T04:19:34.141Z,9.91
2023-05-14T04:22:00.720Z,9.89
2023-05-14T04:24:27.360Z,10.00
2023-05-14T04:26:53.894Z,10.03
2023-05-14T04:29:20.548Z,10.14
2023-05-14T04:31:47.121Z,10.15
2023-05-14T04:34:13.573Z,10.19
2023-05-14T04:36:40.269Z,10.21
2023-05-14T04:39:06.999Z,10.32
2023-05-14T04:41:33.567Z,10.37
2023-05-14T04:44:01.774Z,10.44
2023-05-14T04:46:28.843Z,10.48
2023-05-14T04:48:56.532Z,10.55
2023-05-14T04:51:23.469Z,10.62
2023-05-14T04:53:50.170Z,10.60
2023-05-14T04:56:16.625Z,10.60
2023-05-14T04:58:43.236Z,10.63
2023-05-14T05:01:10.066Z,10.71
2023-05-14T05:03:36.573Z,10.83
2023-05-14T05:06:03.564Z,10.81
2023-05-14T05:08:30.140Z,10.79
2023-05-14T05:10:56.612Z,10.84
2023-05-14T05:13:23.228Z,10.89
2023-05-14T05:15:49.720Z,10.97
2023-05-14T05:18:16.502Z,10.94
2023-05-14T05:20:42.972Z,11.06
2023-05-14T05:23:09.736Z,11.15
2023-05-14T05:25:36.257Z,11.26
2023-05-14T05:28:03.040Z,11.25
2023-05-14T05:30:30.205Z,11.40
2023-05-14T05:32:57.636Z,11.41
2023-05-14T05:35:24.524Z,11.45
2023-05-14T05:37:50.991Z,11.52
2023-05-14T05:40:17.831Z,11.66
2023-05-14T05:42:44.446Z,11.63
2023-05-14T05:45:11.251Z,11.71
2023-05-14T05:47:37.835Z,11.81
2023-05-14T05:50:04.975Z,11.95
2023-05-14T05:52:31.942Z,12.07
2023-05-14T05:54:58.618Z,12.20
2023-05-14T05:57:27.011Z,12.40
2023-05-14T05:59:53.910Z,12.53
2023-05-14T06:02:20.616Z,12.56
2023-05-14T06:04:47.435Z,12.63
2023-05-14T06:07:14.074Z,12.73
2023-05-14T06:09:40.581Z,12.81
2023-05-14T06:12:07.548Z,12.92
2023-05-14T06:14:34.241Z,12.99
2023-05-14T06:17:01.021Z,13.07
2023-05-14T06:19:27.600Z,13.11
2023-05-14T06:22:00.125Z,13.13
2023-05-14T06:24:26.555Z,13.29
2023-05-14T06:26:53.305Z,13.48
2023-05-14T06:29:19.924Z,13.59
2023-05-14T06:31:46.471Z,13.74
2023-05-14T06:34:13.063Z,13.89
2023-05-14T06:36:40.091Z,13.91
2023-05-14T06:39:06.877Z,14.23
2023-05-14T06:41:33.324Z,14.32
2023-05-14T06:44:00.031Z,14.30
2023-05-14T06:46:26.509Z,14.32
2023-05-14T06:48:53.282Z,14.44
2023-05-14T06:51:19.720Z,14.48
2023-05-14T06:53:47.738Z,14.57
2023-05-14T06:56:14.639Z,14.67
2023-05-14T06:58:41.358Z,14.69
2023-05-14T07:01:07.904Z,14.49
2023-05-14T07:03:34.628Z,14.61
2023-05-14T07:06:01.148Z,14.67
2023-05-14T07:08:27.908Z,14.63
2023-05-14T07:10:54.510Z,14.68
2023-05-14T07:13:21.025Z,14.81
2023-05-14T07:15:47.714Z,14.83
2023-05-14T07:18:14.179Z,14.79
2023-05-14T07:20:40.937Z,14.77
2023-05-14T07:23:07.598Z,14.65
2023-05-14T07:25:34.343Z,14.51
2023-05-14T07:28:00.992Z,14.60
2023-05-14T07:30:27.414Z,14.59
2023-05-14T07:32:54.042Z,14.75
2023-05-14T07:35:20.791Z,14.81
2023-05-14T07:37:47.465Z,14.91
2023-05-14T07:40:14.121Z,14.95
2023-05-14T07:42:40.758Z,15.06
2023-05-14T07:45:09.488Z,15.03
2023-05-14T07:47:36.280Z,15.23
2023-05-14T07:50:03.611Z,15.28
2023-05-14T07:52:30.044Z,15.14
2023-05-14T07:54:56.702Z,15.41
2023-05-14T07:57:23.238Z,15.71
2023-05-14T07:59:49.992Z,15.86
2023-05-14T08:02:16.811Z,16.16
2023-05-14T08:04:43.919Z,16.16
2023-05-14T08:07:10.958Z,16.46
2023-05-14T08:09:37.523Z,16.29
2023-05-14T08:12:05.069Z,16.52
2023-05-14T08:14:32.440Z,16.74
2023-05-14T08:16:59.171Z,16.89
2023-05-14T08:19:27.252Z,16.91
2023-05-14T08:21:53.984Z,17.15
2023-05-14T08:24:20.830Z,17.39
2023-05-14T08:26:47.459Z,17.52
2023-05-14T08:29:16.119Z,17.73
2023-05-14T08:31:43.424Z,17.52
2023-05-14T08:34:09.909Z,17.50
2023-05-14T08:36:36.672Z,17.82
2023-05-14T08:39:03.217Z,18.03
2023-05-14T08:41:30.049Z,18.21
2023-05-14T08:44:11.169Z,18.48
2023-05-14T08:46:38.961Z,18.35
2023-05-14T08:49:18.431Z,18.66
2023-05-14T08:51:48.255Z,19.12
2023-05-14T08:54:18.288Z,19.17
2023-05-14T08:56:49.365Z,19.01
2023-05-14T08:59:17.793Z,19.40
2023-05-14T09:01:47.973Z,19.26
2023-05-14T09:04:19.298Z,18.80
2023-05-14T09:06:56.608Z,18.77
2023-05-14T09:09:23.366Z,18.87
2023-05-14T09:11:51.692Z,18.51
2023-05-14T09:14:18.082Z,18.37
2023-05-14T09:16:50.002Z,18.62
2023-05-14T09:19:21.432Z,18.53
2023-05-14T09:21:49.466Z,18.67
2023-05-14T09:24:24.077Z,18.61
2023-05-14T09:26:56.127Z,18.48
2023-05-14T09:29:29.882Z,18.14
2023-05-14T09:31:58.057Z,18.58
2023-05-14T09:34:29.587Z,18.65
2023-05-14T09:37:01.279Z,18.48
2023-05-14T09:39:29.178Z,18.28
2023-05-14T09:41:56.867Z,18.52
2023-05-14T09:44:24.219Z,18.76
2023-05-14T09:46:53.574Z,18.68
2023-05-14T09:49:20.754Z,18.48
2023-05-14T09:51:48.864Z,18.39
2023-05-14T09:54:15.436Z,18.30
2023-05-14T09:56:43.510Z,18.53
2023-05-14T09:59:10.416Z,18.75
2023-05-14T10:01:38.068Z,19.04
2023-05-14T10:04:07.394Z,18.97
2023-05-14T10:06:37.784Z,19.04
2023-05-14T10:09:05.797Z,18.87
2023-05-14T10:11:37.974Z,18.84
2023-05-14T10:14:07.769Z,18.70
2023-05-14T10:16:38.228Z,18.72
2023-05-14T10:19:12.011Z,18.71
2023-05-14T10:21:41.066Z,18.73
2023-05-14T10:24:08.522Z,18.87
2023-05-14T10:26:39.240Z,18.59
2023-05-14T10:29:06.739Z,18.64
2023-05-14T10:31:51.643Z,18.58
2023-05-14T10:34:38.482Z,18.89
2023-05-14T10:37:07.868Z,19.01
2023-05-14T10:39:48.087Z,18.70
2023-05-14T10:42:28.926Z,18.77
2023-05-14T10:45:01.859Z,18.76
2023-05-14T10:47:32.246Z,18.68
2023-05-14T10:50:01.400Z,18.61
2023-05-14T10:52:28.843Z,18.37
2023-05-14T10:55:02.887Z,18.31
2023-05-14T10:57:32.263Z,18.19
2023-05-14T11:00:01.087Z,18.07
2023-05-14T11:02:33.643Z,18.35
2023-05-14T11:05:05.160Z,18.38
2023-05-14T11:07:34.217Z,18.71
2023-05-14T11:10:08.831Z,18.61
2023-05-14T11:12:40.870Z,18.61
2023-05-14T11:15:10.289Z,18.64
2023-05-14T11:17:38.609Z,18.60
2023-05-14T11:20:06.510Z,18.53
2023-05-14T11:22:33.377Z,18.41
2023-05-14T11:25:00.378Z,18.77
2023-05-14T11:27:27.269Z,18.78
2023-05-14T11:29:55.876Z,18.87
2023-05-14T11:32:22.601Z,18.96
2023-05-14T11:34:49.654Z,19.20
2023-05-14T11:37:17.011Z,18.90
2023-05-14T11:39:52.062Z,18.81
2023-05-14T11:42:20.599Z,18.99
2023-05-14T11:44:54.161Z,18.84
2023-05-14T11:47:21.834Z,19.07
2023-05-14T11:49:49.345Z,19.24
2023-05-14T11:52:19.562Z,19.34
2023-05-14T11:54:47.558Z,19.28
2023-05-14T11:57:16.948Z,19.51
2023-05-14T11:59:44.484Z,19.67
2023-05-14T12:02:13.484Z,19.61
2023-05-14T12:04:42.277Z,19.22
2023-05-14T12:07:11.427Z,19.31
2023-05-14T12:09:43.135Z,19.45
2023-05-14T12:12:12.835Z,19.64
2023-05-14T12:14:42.448Z,20.10
2023-05-14T12:17:20.920Z,19.61
2023-05-14T12:19:49.696Z,19.96
2023-05-14T12:22:24.457Z,20.14
2023-05-14T12:24:58.227Z,20.48
2023-05-14T12:27:29.719Z,20.52
2023-05-14T12:30:19.762Z,20.64
2023-05-14T12:32:51.702Z,20.37
2023-05-14T12:35:18.847Z,21.15
2023-05-14T12:37:45.568Z,21.36
2023-05-14T12:40:12.345Z,21.48
2023-05-14T12:42:38.846Z,21.38
2023-05-14T12:45:07.901Z,21.82
2023-05-14T12:47:35.010Z,21.57
2023-05-14T12:50:01.909Z,21.39
2023-05-14T12:52:37.405Z,21.36
2023-05-14T12:55:09.662Z,21.24
2023-05-14T12:57:37.359Z,21.03
2023-05-14T13:00:08.074Z,21.25
2023-05-14T13:02:42.832Z,21.05
2023-05-14T13:05:13.939Z,21.21
2023-05-14T13:07:40.752Z,21.02
2023-05-14T13:10:08.014Z,21.01
2023-05-14T13:12:34.599Z,21.01
2023-05-14T13:15:01.128Z,20.59
2023-05-14T13:17:28.093Z,20.51
2023-05-14T13:19:54.814Z,20.24
2023-05-14T13:22:21.328Z,20.60
2023-05-14T13:24:47.965Z,20.57
2023-05-14T13:27:14.540Z,20.98
2023-05-14T13:29:41.688Z,20.99
2023-05-14T13:32:08.988Z,21.30
2023-05-14T13:34:35.550Z,21.47
2023-05-14T13:37:02.092Z,22.22
2023-05-14T13:39:28.737Z,22.30
2023-05-14T13:41:56.731Z,23.04
2023-05-14T13:44:23.632Z,24.02
2023-05-14T13:46:50.591Z,24.62
2023-05-14T13:49:17.238Z,24.76
2023-05-14T13:51:44.220Z,25.45
2023-05-14T13:54:10.746Z,26.13
2023-05-14T13:56:37.520Z,25.66
2023-05-14T13:59:04.136Z,26.09
2023-05-14T14:01:31.734Z,26.39
2023-05-14T14:03:58.399Z,26.54
2023-05-14T14:06:27.473Z,25.60
2023-05-14T14:08:54.226Z,25.71
2023-05-14T14:11:20.850Z,25.23
2023-05-14T14:13:47.648Z,24.89
2023-05-14T14:16:14.358Z,23.99
2023-05-14T14:18:41.426Z,25.05
2023-05-14T14:21:07.952Z,26.61
2023-05-14T14:23:34.717Z,26.90
2023-05-14T14:26:01.260Z,26.70
2023-05-14T14:28:28.028Z,26.71
2023-05-14T14:30:54.498Z,26.47
2023-05-14T14:33:21.201Z,25.20
2023-05-14T14:35:47.886Z,27.27
2023-05-14T14:38:14.504Z,28.14
2023-05-14T14:40:41.332Z,27.80
2023-05-14T14:43:07.773Z,27.48
2023-05-14T14:45:34.679Z,28.39
2023-05-14T14:48:39.764Z,28.77
2023-05-14T14:51:07.234Z,28.05
2023-05-14T14:53:35.005Z,28.24
2023-05-14T14:56:02.233Z,29.20
2023-05-14T14:58:28.951Z,28.44
2023-05-14T15:00:56.699Z,28.31
2023-05-14T15:03:25.075Z,29.20
2023-05-14T15:05:53.337Z,29.91
2023-05-14T15:08:20.896Z,29.01
2023-05-14T15:10:47.533Z,29.37
2023-05-14T15:13:13.989Z,30.09
2023-05-14T15:15:40.708Z,30.26
2023-05-14T15:18:07.330Z,30.17
2023-05-14T15:20:34.031Z,28.15
2023-05-14T15:23:00.549Z,27.73
2023-05-14T15:25:27.403Z,27.91
2023-05-14T15:27:54.041Z,28.91
2023-05-14T15:30:20.578Z,25.79
2023-05-14T15:32:47.486Z,26.20
2023-05-14T15:35:14.103Z,25.93
2023-05-14T15:37:44.809Z,25.94
2023-05-14T15:40:11.990Z,24.45
2023-05-14T15:42:42.156Z,25.02
2023-05-14T15:45:13.027Z,26.34
2023-05-14T15:47:40.393Z,27.90
2023-05-14T15:50:07.843Z,28.34
2023-05-14T15:52:36.312Z,28.22
2023-05-14T15:55:04.978Z,28.48
2023-05-14T15:57:31.914Z,28.35
2023-05-14T15:59:58.477Z,27.74
2023-05-14T16:02:25.181Z,28.69
2023-05-14T16:04:51.645Z,29.07
2023-05-14T16:07:18.318Z,29.10
2023-05-14T16:09:44.741Z,29.10
2023-05-14T16:12:12.463Z,29.33
2023-05-14T16:14:41.245Z,29.60
2023-05-14T16:17:08.822Z,29.35
2023-05-14T16:19:35.284Z,29.23
2023-05-14T16:22:02.132Z,28.07
2023-05-14T16:24:28.633Z,28.25
2023-05-14T16:26:55.344Z,29.19
2023-05-14T16:29:22.494Z,29.53
2023-05-14T16:31:49.070Z,29.29
2023-05-14T16:34:16.183Z,28.70
2023-05-14T16:36:42.749Z,28.77
2023-05-14T16:39:09.391Z,28.96
2023-05-14T16:41:35.977Z,28.98
2023-05-14T16:44:03.407Z,29.63
2023-05-14T16:46:30.548Z,29.29
2023-05-14T16:48:57.152Z,28.67
2023-05-14T16:51:23.701Z,29.33
2023-05-14T16:53:51.250Z,28.26
2023-05-14T16:56:18.574Z,29.05
2023-05-14T16:58:45.383Z,28.46
2023-05-14T17:01:11.990Z,28.74
2023-05-14T17:03:38.641Z,28.03
2023-05-14T17:06:05.694Z,28.46
2023-05-14T17:08:32.472Z,28.39
2023-05-14T17:10:59.376Z,28.31
2023-05-14T17:13:25.776Z,27.41
2023-05-14T17:15:52.781Z,27.19
2023-05-14T17:18:19.444Z,27.00
2023-05-14T17:20:45.868Z,26.38
2023-05-14T17:23:12.497Z,26.31
2023-05-14T17:25:39.182Z,25.73
2023-05-14T17:28:06.149Z,25.37
2023-05-14T17:30:32.782Z,25.15
2023-05-14T17:32:59.418Z,24.86
2023-05-14T17:35:26.246Z,25.17
2023-05-14T17:37:52.990Z,24.72
2023-05-14T17:40:19.552Z,24.40
2023-05-14T17:42:46.411Z,24.42
2023-05-14T17:45:14.366Z,23.59
2023-05-14T17:47:41.186Z,23.78
2023-05-14T17:50:08.237Z,23.46
2023-05-14T17:52:34.763Z,23.60
2023-05-14T17:55:01.458Z,23.45
2023-05-14T17:57:27.986Z,22.62
2023-05-14T17:59:54.835Z,23.01
2023-05-14T18:02:21.304Z,22.78
2023-05-14T18:04:48.055Z,22.52
2023-05-14T18:07:14.651Z,22.71
2023-05-14T18:09:41.351Z,22.41
2023-05-14T18:12:08.427Z,22.30
2023-05-14T18:14:35.086Z,21.92
2023-05-14T18:17:01.782Z,21.32
2023-05-14T18:19:28.292Z,21.48
2023-05-14T18:21:55.601Z,21.55
2023-05-14T18:24:22.298Z,21.13
2023-05-14T18:26:49.023Z,20.91
2023-05-14T18:29:15.734Z,20.39
2023-05-14T18:31:42.200Z,20.07
2023-05-14T18:34:08.735Z,20.06
2023-05-14T18:36:35.333Z,20.03
2023-05-14T18:39:01.777Z,19.89
2023-05-14T18:41:28.570Z,19.78
2023-05-14T18:43:55.235Z,19.42
2023-05-14T18:46:21.976Z,19.13
2023-05-14T18:48:48.469Z,19.12
2023-05-14T18:51:15.156Z,18.90
2023-05-14T18:53:41.848Z,18.70
2023-05-14T18:56:09.429Z,18.62
2023-05-14T18:58:36.002Z,18.77
2023-05-14T19:01:02.472Z,18.79
2023-05-14T19:03:29.172Z,18.76
2023-05-14T19:05:55.878Z,18.65
2023-05-14T19:08:22.367Z,18.35
2023-05-14T19:10:48.954Z,18.46
2023-05-14T19:13:18.436Z,18.48
2023-05-14T19:15:44.913Z,18.35
2023-05-14T19:18:12.903Z,18.15
2023-05-14T19:20:39.456Z,18.23
2023-05-14T19:23:06.118Z,18.26
2023-05-14T19:25:33.976Z,17.99
2023-05-14T19:28:02.090Z,18.02
2023-05-14T19:30:28.511Z,17.75
2023-05-14T19:32:55.188Z,17.61
2023-05-14T19:35:21.824Z,17.50
2023-05-14T19:37:48.506Z,17.29
2023-05-14T19:40:14.970Z,17.19
2023-05-14T19:42:41.485Z,16.94
2023-05-14T19:45:08.132Z,16.81
2023-05-14T19:47:34.730Z,16.79
2023-05-14T19:50:01.269Z,16.58
2023-05-14T19:52:27.787Z,16.76
2023-05-14T19:54:54.360Z,16.39
2023-05-14T19:57:21.123Z,16.46
2023-05-14T19:59:47.696Z,16.39
2023-05-14T20:02:18.141Z,16.34
2023-05-14T20:04:45.948Z,16.55
2023-05-14T20:07:15.485Z,16.54
2023-05-14T20:09:42.242Z,16.56
2023-05-14T20:12:09.386Z,16.39
2023-05-14T20:14:36.081Z,16.46
2023-05-14T20:17:02.674Z,16.37
2023-05-14T20:19:29.305Z,16.17
2023-05-14T20:21:56.425Z,15.98
2023-05-14T20:24:22.970Z,15.77
2023-05-14T20:26:49.536Z,16.05
2023-05-14T20:29:16.243Z,16.05
2023-05-14T20:31:42.713Z,16.03
2023-05-14T20:34:09.416Z,15.95
2023-05-14T20:36:35.920Z,15.99
2023-05-14T20:39:02.852Z,15.36
2023-05-14T20:41:29.284Z,15.66
2023-05-14T20:43:55.753Z,15.55
2023-05-14T20:46:22.214Z,15.43
2023-05-14T20:48:48.761Z,15.49
2023-05-14T20:51:15.240Z,15.44
2023-05-14T20:53:41.732Z,15.17
2023-05-14T20:56:08.155Z,15.34
2023-05-14T20:58:35.482Z,15.31
2023-05-14T21:01:02.125Z,15.23
2023-05-14T21:03:29.052Z,15.34
2023-05-14T21:05:56.850Z,15.26
2023-05-14T21:08:23.340Z,15.30
2023-05-14T21:10:50.014Z,15.14
2023-05-14T21:13:16.491Z,15.17
2023-05-14T21:15:43.037Z,14.83
2023-05-14T21:18:09.652Z,14.96
2023-05-14T21:20:36.165Z,15.00
2023-05-14T21:23:02.663Z,14.93
2023-05-14T21:25:29.255Z,14.87
2023-05-14T21:27:56.691Z,14.74
2023-05-14T21:30:23.292Z,14.59
2023-05-14T21:32:49.751Z,14.67
2023-05-14T21:35:16.456Z,14.61
2023-05-14T21:37:43.371Z,14.68
2023-05-14T21:40:12.123Z,14.53
2023-05-14T21:42:39.586Z,14.47
2023-05-14T21:45:06.608Z,14.47
2023-05-14T21:47:33.628Z,14.40
2023-05-14T21:50:00.198Z,14.35
2023-05-14T21:52:27.048Z,14.29
2023-05-14T21:54:53.472Z,14.31
2023-05-14T21:57:20.108Z,14.32
2023-05-14T21:59:46.629Z,14.26
2023-05-14T22:02:13.243Z,14.22
2023-05-14T22:04:39.786Z,14.16
2023-05-14T22:07:06.280Z,14.12
2023-05-14T22:09:32.861Z,14.04
2023-05-14T22:11:59.746Z,13.98
2023-05-14T22:14:29.327Z,13.87
2023-05-14T22:16:56.790Z,13.94
2023-05-14T22:19:23.459Z,13.62
2023-05-14T22:21:50.054Z,13.63
2023-05-14T22:24:16.474Z,13.50
2023-05-14T22:26:43.035Z,13.62
2023-05-14T22:29:09.535Z,13.59
2023-05-14T22:31:36.281Z,13.66
2023-05-14T22:34:02.854Z,13.64
2023-05-14T22:36:29.452Z,13.54
2023-05-14T22:38:56.011Z,13.29
2023-05-14T22:41:22.442Z,13.21
2023-05-14T22:43:49.380Z,13.03
2023-05-14T22:46:16.310Z,13.18
2023-05-14T22:48:42.891Z,13.26
2023-05-14T22:51:09.488Z,13.18
2023-05-14T22:53:36.152Z,13.17
2023-05-14T22:56:03.099Z,13.15
2023-05-14T22:58:29.559Z,13.18
2023-05-14T23:00:56.579Z,13.18
2023-05-14T23:03:22.989Z,13.08
2023-05-14T23:05:49.617Z,12.92
2023-05-14T23:08:16.254Z,13.08
2023-05-14T23:10:42.799Z,13.11
2023-05-14T23:13:09.558Z,13.17
2023-05-14T23:15:36.107Z,13.13
2023-05-14T23:18:02.825Z,13.21
2023-05-14T23:20:29.491Z,13.25
2023-05-14T23:22:55.945Z,13.24
2023-05-14T23:25:22.709Z,13.20
2023-05-14T23:27:50.060Z,13.19
2023-05-14T23:30:16.880Z,13.13
2023-05-14T23:32:43.531Z,13.01
2023-05-14T23:35:10.271Z,13.04
2023-05-14T23:37:41.771Z,13.02
2023-05-14T23:40:09.475Z,12.83
2023-05-14T23:42:36.105Z,12.91
2023-05-14T23:45:02.633Z,12.99
2023-05-14T23:47:29.476Z,12.89
2023-05-14T23:49:55.935Z,13.03
2023-05-14T23:52:22.523Z,12.99
2023-05-14T23:54:49.069Z,12.72
2023-05-14T23:57:15.814Z,12.75
2023-05-14T23:59:42.478Z,12.82
